Terminal Aerodrome Forecast
Issued by NWS

Home | Current Version | Previous Version | Text Only | Print | Product List | Glossary On
Versions: 1 2 3 4 5 6 7 8 9 10 11 12 13 14 15
000
FTUS45 KABQ 270537
TAFGUP
TAF
KGUP 270537Z 2706/2806 VRB04KT P6SM FEW100
     FM272000 34008KT P6SM VCSH BKN090
     FM280300 18008KT P6SM VCTS BKN070CB
      TEMPO 2803/2806 -SHRA OVC050=

USA.gov is the U.S. government's official web portal to all federal, state and local government web resources and services.